Time;durP1;ratioP1;P1;durP2;ratioP2;P2;SDS_P1;SDS_P2;PMS_P1;PMS_P2;Temp;Humidity;BMP_temperature;BMP_pressure;BME280_temperature;BME280_humidity;BME280_pressure;Samples;Min_cycle;Max_cycle;Signal;HPM_P1;HPM_P2
2022/03/13 00:02:04;;;;;;;21.33;8.82;;;;;;;-2.34;43.15;101206.03;4375725;32;33901;-60
2022/03/13 00:04:31;;;;;;;23.55;9.00;;;;;;;-2.28;43.14;101201.72;4377361;32;34057;-59
2022/03/13 00:06:59;;;;;;;22.20;9.38;;;;;;;-1.91;42.04;101211.09;4368848;32;33378;-60
2022/03/13 00:09:26;;;;;;;17.90;8.38;;;;;;;-2.60;43.52;101203.88;4377660;32;33595;-58
2022/03/13 00:11:54;;;;;;;21.08;9.73;;;;;;;-2.81;44.49;101201.31;4377648;32;33861;-60
2022/03/13 00:14:24;;;;;;;22.50;10.15;;;;;;;-2.52;44.13;101206.41;4377571;32;34030;-59
2022/03/13 00:16:53;;;;;;;24.05;9.38;;;;;;;-2.42;43.96;101196.63;4375632;32;32931;-59
2022/03/13 00:19:21;;;;;;;24.20;10.13;;;;;;;-2.40;44.02;101200.25;4364222;32;33454;-61
2022/03/13 00:21:51;;;;;;;20.70;9.75;;;;;;;-2.56;44.42;101202.59;4377342;32;33637;-59
2022/03/13 00:24:20;;;;;;;23.27;10.10;;;;;;;-2.66;45.02;101195.53;4375818;32;32325;-59
2022/03/13 00:26:51;;;;;;;24.58;11.73;;;;;;;-3.05;46.45;101199.25;4373606;32;33976;-59
2022/03/13 00:29:19;;;;;;;24.42;9.80;;;;;;;-3.09;46.84;101205.59;4376429;32;33494;-60
2022/03/13 00:31:47;;;;;;;20.20;10.10;;;;;;;-3.51;47.69;101202.19;4376006;32;33565;-60
2022/03/13 00:34:14;;;;;;;20.23;9.68;;;;;;;-3.24;47.27;101203.75;4361125;32;33916;-60
2022/03/13 00:36:42;;;;;;;20.80;9.57;;;;;;;-3.04;46.87;101189.31;4375612;32;33961;-60
2022/03/13 00:39:09;;;;;;;27.33;10.13;;;;;;;-3.21;47.21;101193.97;4375495;32;33811;-59
2022/03/13 00:41:38;;;;;;;23.70;10.13;;;;;;;-1.91;44.70;101190.78;4377090;32;34018;-59
2022/03/13 00:44:05;;;;;;;25.70;9.60;;;;;;;-1.45;43.98;101185.91;4376553;32;34652;-60
2022/03/13 00:46:33;;;;;;;18.50;9.43;;;;;;;-2.64;45.79;101188.12;4377032;32;34474;-60
2022/03/13 00:49:01;;;;;;;16.30;7.68;;;;;;;-3.04;46.78;101199.44;4364115;32;33851;-60
2022/03/13 00:51:28;;;;;;;18.73;8.38;;;;;;;-3.52;47.74;101191.88;4377533;32;33968;-60
2022/03/13 00:53:56;;;;;;;22.42;8.38;;;;;;;-3.51;47.97;101202.19;4377456;32;33934;-60
2022/03/13 00:56:23;;;;;;;19.33;8.20;;;;;;;-3.55;47.88;101194.94;4376641;32;34580;-58
2022/03/13 00:58:51;;;;;;;16.60;7.80;;;;;;;-3.39;47.64;101193.56;4376981;32;34294;-60
2022/03/13 01:01:18;;;;;;;19.85;8.25;;;;;;;-3.39;47.48;101183.41;4376562;32;33879;-59
2022/03/13 01:03:53;;;;;;;20.25;8.25;;;;;;;-3.59;47.87;101185.16;4375333;32;33714;-60
2022/03/13 01:06:22;;;;;;;14.77;7.30;;;;;;;-3.81;48.50;101181.59;4372612;32;32022;-60
2022/03/13 01:08:51;;;;;;;16.12;7.30;;;;;;;-3.73;48.22;101187.62;4368646;32;81855;-59
2022/03/13 01:11:20;;;;;;;21.12;7.95;;;;;;;-3.84;48.38;101179.63;4376093;32;34420;-58
2022/03/13 01:13:48;;;;;;;18.98;8.07;;;;;;;-3.86;47.99;101176.00;4374462;32;33935;-59
2022/03/13 01:16:25;;;;;;;18.95;8.55;;;;;;;-3.70;47.93;101178.78;4370856;32;33135;-58
2022/03/13 01:18:55;;;;;;;19.92;7.97;;;;;;;-3.83;47.84;101171.28;4373106;32;31762;-61
2022/03/13 01:21:23;;;;;;;20.85;10.25;;;;;;;-4.11;49.00;101176.19;4373226;32;33718;-61
2022/03/13 01:24:00;;;;;;;18.17;8.40;;;;;;;-3.95;49.22;101169.78;4374766;32;33861;-61
2022/03/13 01:26:28;;;;;;;18.25;8.23;;;;;;;-3.72;47.59;101180.22;4375983;32;34835;-60
2022/03/13 01:28:58;;;;;;;14.52;7.22;;;;;;;-3.28;46.16;101179.66;4376012;32;33259;-61
2022/03/13 01:31:31;;;;;;;13.90;7.12;;;;;;;-3.20;45.56;101175.53;4377296;32;33684;-61
2022/03/13 01:34:00;;;;;;;18.77;7.57;;;;;;;-3.26;45.63;101179.84;4378011;32;34822;-61
2022/03/13 01:36:28;;;;;;;23.83;8.52;;;;;;;-3.36;45.70;101167.69;4376381;32;33689;-61
2022/03/13 01:38:57;;;;;;;21.05;9.65;;;;;;;-3.27;45.81;101178.03;4377069;32;34027;-60
2022/03/13 01:41:28;;;;;;;21.87;8.93;;;;;;;-3.53;47.05;101175.78;4377884;32;33608;-60
2022/03/13 01:43:57;;;;;;;23.02;8.82;;;;;;;-3.67;47.73;101173.16;4377011;32;33863;-59
2022/03/13 01:46:25;;;;;;;17.25;8.50;;;;;;;-3.65;47.06;101172.66;4377817;32;34044;-60
2022/03/13 01:48:56;;;;;;;23.38;9.43;;;;;;;-3.71;47.21;101165.91;4377947;32;33287;-60
2022/03/13 01:51:25;;;;;;;23.00;9.02;;;;;;;-3.83;47.61;101171.28;4377758;32;33915;-61
2022/03/13 01:53:56;;;;;;;18.58;9.00;;;;;;;-4.07;48.31;101163.22;4376211;32;33061;-60
2022/03/13 01:56:23;;;;;;;19.67;8.23;;;;;;;-3.90;47.99;101163.69;4376277;32;32991;-60
2022/03/13 01:58:53;;;;;;;26.80;8.50;;;;;;;-3.41;46.86;101162.06;4373409;32;34170;-59
2022/03/13 02:01:22;;;;;;;21.95;8.95;;;;;;;-3.40;46.80;101166.41;4373696;32;33917;-59
2022/03/13 02:03:51;;;;;;;27.45;11.77;;;;;;;-3.19;46.07;101159.56;4373860;32;33997;-59
2022/03/13 02:06:20;;;;;;;32.08;10.60;;;;;;;-3.48;46.67;101156.97;4365654;32;33957;-61
2022/03/13 02:08:48;;;;;;;30.40;11.15;;;;;;;-3.77;47.73;101146.75;4373706;32;33411;-61
2022/03/13 02:11:19;;;;;;;26.20;9.52;;;;;;;-3.69;47.70;101151.81;4363403;32;34617;-59
2022/03/13 02:13:48;;;;;;;18.27;8.57;;;;;;;-3.49;46.75;101139.97;4375352;32;33887;-60
2022/03/13 02:16:18;;;;;;;28.48;10.32;;;;;;;-3.26;45.94;101144.38;4374805;32;34769;-59
2022/03/13 02:18:51;;;;;;;32.00;10.98;;;;;;;-3.26;46.63;101139.31;4374730;32;33567;-61
2022/03/13 02:21:23;;;;;;;29.63;10.98;;;;;;;-2.07;43.91;101136.38;4377280;32;34536;-61
2022/03/13 02:23:59;;;;;;;;;;;;;;;-1.81;43.50;101132.69;4372410;32;34082;-60
2022/03/13 02:26:26;;;;;;;17.55;7.37;;;;;;;-1.93;43.96;101141.44;4363554;32;32236;-60
2022/03/13 02:28:55;;;;;;;17.27;6.90;;;;;;;-3.20;47.43;101140.94;4375608;32;33947;-60
2022/03/13 02:31:28;;;;;;;21.25;7.80;;;;;;;-2.04;44.95;101131.66;4376352;32;33923;-61
2022/03/13 02:33:56;;;;;;;18.85;7.28;;;;;;;-3.73;48.34;101136.97;4377383;32;33956;-61
2022/03/13 02:36:27;;;;;;;20.88;8.20;;;;;;;-4.26;50.11;101135.63;4378896;32;34679;-60
2022/03/13 02:38:54;;;;;;;18.98;8.63;;;;;;;-4.20;50.29;101143.97;4378321;32;32634;-60
2022/03/13 02:41:22;;;;;;;17.15;8.10;;;;;;;-4.07;49.50;101143.88;4378369;32;32318;-61
2022/03/13 02:43:50;;;;;;;17.02;8.35;;;;;;;-3.89;49.38;101145.22;4377400;32;33725;-61
2022/03/13 02:46:20;;;;;;;20.92;8.57;;;;;;;-3.97;49.73;101131.63;4375145;32;33549;-60
2022/03/13 02:48:50;;;;;;;15.25;7.62;;;;;;;-4.10;49.97;101138.41;4360988;32;33156;-60
2022/03/13 02:51:18;;;;;;;21.55;9.60;;;;;;;-4.36;50.32;101128.50;4379160;32;33899;-60
2022/03/13 02:53:45;;;;;;;21.92;10.27;;;;;;;-4.43;50.30;101130.09;4377772;32;33710;-60
2022/03/13 02:56:13;;;;;;;21.83;9.95;;;;;;;-4.58;50.54;101134.12;4376890;32;33834;-62
2022/03/13 02:58:40;;;;;;;25.20;11.02;;;;;;;-4.64;50.43;101129.19;4364499;32;34234;-61
2022/03/13 03:01:08;;;;;;;27.62;9.82;;;;;;;-4.52;50.43;101128.94;4377877;32;33589;-61
2022/03/13 03:03:37;;;;;;;22.33;10.30;;;;;;;-4.52;50.64;101131.47;4377076;32;34730;-61
2022/03/13 03:06:04;;;;;;;24.15;11.00;;;;;;;-4.67;51.24;101138.94;4375166;32;34785;-60
2022/03/13 03:08:32;;;;;;;20.12;10.48;;;;;;;-4.67;50.96;101130.47;4375143;32;33663;-60
2022/03/13 03:11:00;;;;;;;16.45;8.75;;;;;;;-4.42;50.49;101129.38;4373517;32;34548;-59
2022/03/13 03:13:28;;;;;;;18.95;8.82;;;;;;;-4.49;50.15;101126.78;4374573;32;33539;-60
2022/03/13 03:15:58;;;;;;;20.48;8.65;;;;;;;-4.18;49.32;101127.34;4374525;32;33676;-60
2022/03/13 03:18:26;;;;;;;19.95;10.05;;;;;;;-4.16;48.78;101128.44;4375253;32;33827;-61
2022/03/13 03:20:54;;;;;;;22.45;8.85;;;;;;;-4.33;49.05;101127.06;4377244;32;33561;-61
2022/03/13 03:23:21;;;;;;;21.02;9.68;;;;;;;-3.99;48.21;101122.03;4377024;32;32717;-61
2022/03/13 03:25:49;;;;;;;19.45;9.98;;;;;;;-3.98;47.92;101122.22;4376592;32;33984;-60
2022/03/13 03:28:17;;;;;;;25.15;10.27;;;;;;;-4.38;49.63;101122.34;4376385;32;33172;-60
2022/03/13 03:30:45;;;;;;;19.73;8.65;;;;;;;-4.62;50.27;101127.78;4376374;32;34657;-61
2022/03/13 03:33:13;;;;;;;18.62;8.80;;;;;;;-4.38;49.74;101118.94;4376766;32;33701;-61
2022/03/13 03:35:40;;;;;;;19.85;8.75;;;;;;;-4.12;49.17;101114.53;4375608;32;32302;-61
2022/03/13 03:38:08;;;;;;;20.58;10.52;;;;;;;-4.01;48.77;101115.88;4364147;32;32479;-62
2022/03/13 03:40:36;;;;;;;23.55;10.88;;;;;;;-3.91;48.71;101111.22;4378752;32;33619;-61
2022/03/13 03:43:05;;;;;;;21.42;10.18;;;;;;;-3.42;47.64;101104.53;4378590;32;34621;-61
2022/03/13 03:45:33;;;;;;;23.77;10.52;;;;;;;-3.83;48.80;101110.53;4378309;32;33816;-60
2022/03/13 03:48:01;;;;;;;25.42;9.32;;;;;;;-3.72;48.72;101108.41;4388824;32;34078;-61
2022/03/13 03:50:28;;;;;;;17.98;8.48;;;;;;;-4.20;49.89;101106.00;4378048;32;33875;-60
2022/03/13 03:52:57;;;;;;;17.65;8.80;;;;;;;-4.34;50.20;101100.88;4378506;32;34713;-60
2022/03/13 03:55:26;;;;;;;19.65;9.68;;;;;;;-4.20;49.80;101095.88;4378478;32;33924;-61
2022/03/13 03:57:53;;;;;;;16.87;8.35;;;;;;;-4.39;49.92;101107.87;4378242;32;34491;-61
2022/03/13 04:00:24;;;;;;;20.52;9.20;;;;;;;-4.52;50.12;101104.53;4377558;32;33563;-61
2022/03/13 04:02:52;;;;;;;18.73;8.70;;;;;;;-4.56;50.69;101102.34;4365236;32;34427;-61
2022/03/13 04:05:20;;;;;;;15.82;8.48;;;;;;;-4.71;51.06;101111.47;4377993;32;33713;-60
2022/03/13 04:07:47;;;;;;;17.08;8.25;;;;;;;-4.51;50.52;101110.53;4376978;32;33419;-61
2022/03/13 04:10:15;;;;;;;19.48;9.70;;;;;;;-4.83;51.33;101110.84;4377261;32;33815;-60
2022/03/13 04:12:42;;;;;;;27.37;11.15;;;;;;;-4.85;52.36;101101.22;4378888;32;34011;-60
2022/03/13 04:15:10;;;;;;;28.20;10.85;;;;;;;-4.47;52.05;101103.50;4385278;32;33808;-61
2022/03/13 04:17:37;;;;;;;22.10;11.10;;;;;;;-4.43;51.54;101104.78;4361414;32;34303;-60
2022/03/13 04:20:06;;;;;;;25.08;10.90;;;;;;;-4.48;52.01;101100.78;4376037;32;34854;-61
2022/03/13 04:22:34;;;;;;;21.10;9.52;;;;;;;-4.36;51.51;101099.78;4376935;32;33621;-61
2022/03/13 04:25:02;;;;;;;24.55;9.95;;;;;;;-4.35;50.01;101099.06;4379551;32;33233;-61
2022/03/13 04:27:30;;;;;;;20.90;10.15;;;;;;;-3.02;48.24;101090.63;4378092;32;33496;-61
2022/03/13 04:29:57;;;;;;;23.02;9.93;;;;;;;-3.33;47.80;101097.09;4378758;32;33588;-60
2022/03/13 04:32:25;;;;;;;20.85;9.35;;;;;;;-4.38;50.12;101103.75;4378407;32;32974;-60
2022/03/13 04:34:53;;;;;;;18.85;8.90;;;;;;;-4.28;50.07;101100.75;4378182;32;33854;-61
2022/03/13 04:37:22;;;;;;;23.95;9.73;;;;;;;-4.49;50.23;101093.91;4377206;32;33397;-60
2022/03/13 04:39:51;;;;;;;22.23;9.13;;;;;;;-4.49;50.57;101091.41;4378182;32;33829;-59
2022/03/13 04:42:19;;;;;;;20.37;9.05;;;;;;;-4.50;50.64;101087.03;4359997;32;33703;-60
2022/03/13 04:44:46;;;;;;;26.60;9.63;;;;;;;-4.67;50.84;101080.81;4375689;32;34152;-59
2022/03/13 04:47:14;;;;;;;17.92;8.63;;;;;;;-4.72;50.93;101084.37;4378497;32;34159;-61
2022/03/13 04:49:44;;;;;;;20.08;8.32;;;;;;;-4.74;50.77;101085.78;4378073;32;34863;-61
2022/03/13 04:52:14;;;;;;;19.65;7.53;;;;;;;-4.39;50.02;101091.81;4378226;32;33222;-61
2022/03/13 04:54:42;;;;;;;19.90;8.38;;;;;;;-4.47;50.22;101085.78;4363681;32;33903;-61
2022/03/13 04:57:09;;;;;;;20.05;8.55;;;;;;;-4.47;50.11;101082.38;4376957;32;33548;-60
2022/03/13 04:59:37;;;;;;;21.90;8.73;;;;;;;-4.65;50.57;101089.47;4354911;32;32161;-62
2022/03/13 05:02:04;;;;;;;22.58;10.27;;;;;;;-4.58;50.45;101081.94;4366121;32;33437;-61
2022/03/13 05:04:32;;;;;;;23.42;11.05;;;;;;;-4.59;50.75;101077.59;4378099;32;34369;-61
2022/03/13 05:07:00;;;;;;;24.50;10.98;;;;;;;-4.43;50.58;101084.56;4378076;32;33828;-60
2022/03/13 05:09:28;;;;;;;19.73;10.23;;;;;;;-4.44;51.11;101077.66;4377973;32;33772;-62
2022/03/13 05:11:56;;;;;;;32.58;13.10;;;;;;;-3.96;49.96;101086.97;4377757;32;33904;-61
2022/03/13 05:14:23;;;;;;;26.02;11.23;;;;;;;-4.33;51.60;101091.66;4377417;32;34005;-61
2022/03/13 05:16:51;;;;;;;22.00;10.20;;;;;;;-4.64;52.28;101093.81;4378523;32;34235;-60
2022/03/13 05:19:19;;;;;;;20.98;10.25;;;;;;;-4.48;50.34;101095.72;4376952;32;33674;-60
2022/03/13 05:21:46;;;;;;;18.70;8.07;;;;;;;-4.30;49.39;101103.06;4372574;32;34607;-61
2022/03/13 05:24:14;;;;;;;19.50;8.80;;;;;;;-4.19;49.56;101107.84;4375304;32;33500;-61
2022/03/13 05:26:41;;;;;;;18.27;8.75;;;;;;;-4.25;49.79;101096.03;4376191;32;34045;-61
2022/03/13 05:29:09;;;;;;;18.77;8.18;;;;;;;-4.38;49.88;101099.59;4375765;32;33794;-62
2022/03/13 05:31:37;;;;;;;21.80;8.38;;;;;;;-4.51;50.21;101098.78;4375590;32;33534;-61
2022/03/13 05:34:07;;;;;;;18.17;8.20;;;;;;;-4.24;49.54;101093.69;4375694;32;33906;-61
2022/03/13 05:36:34;;;;;;;19.25;8.63;;;;;;;-4.39;49.80;101099.41;4377729;32;34006;-60
2022/03/13 05:39:02;;;;;;;16.95;7.78;;;;;;;-4.34;50.22;101095.81;4368131;32;32360;-61
2022/03/13 05:41:30;;;;;;;19.15;7.85;;;;;;;-4.20;49.46;101100.94;4383723;32;34810;-61
2022/03/13 05:43:57;;;;;;;18.23;8.05;;;;;;;-3.90;48.63;101102.91;4379950;32;33725;-60
2022/03/13 05:46:25;;;;;;;19.23;7.90;;;;;;;-3.96;48.78;101099.62;4377999;32;33448;-60
2022/03/13 05:48:52;;;;;;;21.30;7.93;;;;;;;-4.45;51.05;101101.16;4377882;32;34037;-60
2022/03/13 05:51:25;;;;;;;16.95;7.68;;;;;;;-5.01;52.10;101104.34;4376855;32;33504;-60
2022/03/13 05:53:53;;;;;;;18.08;7.68;;;;;;;-4.71;51.78;101101.37;4377424;32;33697;-60
2022/03/13 05:56:20;;;;;;;15.25;6.93;;;;;;;-4.10;49.88;101102.09;4364195;32;32969;-61
2022/03/13 05:58:48;;;;;;;15.68;6.80;;;;;;;-3.83;48.47;101102.03;4377836;32;34514;-62
2022/03/13 06:01:15;;;;;;;16.23;7.70;;;;;;;-3.02;47.13;101101.66;4379637;32;34651;-61
2022/03/13 06:03:46;;;;;;;17.05;8.75;;;;;;;-2.50;45.92;101095.88;4380781;32;34175;-61
2022/03/13 06:06:14;;;;;;;15.55;6.90;;;;;;;-2.04;44.95;101089.41;4364164;32;34331;-61
2022/03/13 06:08:42;;;;;;;13.77;6.80;;;;;;;-1.71;44.15;101093.97;4386430;32;33814;-61
2022/03/13 06:11:09;;;;;;;13.68;6.82;;;;;;;-1.80;44.68;101093.84;4361718;32;33459;-61
2022/03/13 06:13:37;;;;;;;13.98;6.57;;;;;;;-1.49;43.52;101091.31;4383484;32;33883;-60
2022/03/13 06:16:04;;;;;;;16.17;5.93;;;;;;;-2.13;44.03;101100.12;4383672;32;33335;-60
2022/03/13 06:18:32;;;;;;;13.18;5.78;;;;;;;-2.40;44.97;101094.56;4378625;32;32739;-62
2022/03/13 06:21:01;;;;;;;13.13;6.70;;;;;;;-2.53;44.98;101105.66;4381116;32;33692;-61
2022/03/13 06:23:29;;;;;;;14.10;6.87;;;;;;;-2.48;44.96;101107.09;4375706;32;34099;-61
2022/03/13 06:25:59;;;;;;;12.65;6.55;;;;;;;-2.56;45.48;101106.19;4377837;32;34536;-62
2022/03/13 06:28:27;;;;;;;16.58;7.47;;;;;;;-2.60;45.89;101099.84;4367880;32;33122;-60
2022/03/13 06:30:55;;;;;;;16.90;8.07;;;;;;;-2.56;46.00;101101.13;4377275;32;34019;-61
2022/03/13 06:33:25;;;;;;;15.20;7.43;;;;;;;-2.37;45.37;101102.53;4376504;32;34019;-61
2022/03/13 06:35:53;;;;;;;14.77;7.15;;;;;;;-1.64;44.29;101115.94;4377480;32;33916;-60
2022/03/13 06:38:21;;;;;;;18.02;7.43;;;;;;;-0.98;42.96;101119.91;4376614;32;34035;-61
2022/03/13 06:40:49;;;;;;;15.45;7.62;;;;;;;-0.49;41.81;101115.13;4377364;32;33914;-60
2022/03/13 06:43:17;;;;;;;16.55;7.68;;;;;;;-0.65;41.60;101113.44;4376782;32;33897;-62
2022/03/13 06:45:44;;;;;;;16.92;7.85;;;;;;;-1.01;42.31;101106.06;4376048;32;33419;-61
2022/03/13 06:48:14;;;;;;;18.30;8.65;;;;;;;-1.00;42.57;101122.25;4376913;32;33766;-61
2022/03/13 06:50:42;;;;;;;15.63;7.68;;;;;;;0.12;40.28;101126.84;4377228;32;33954;-60
2022/03/13 06:53:10;;;;;;;18.12;7.75;;;;;;;-0.08;40.81;101121.25;4377476;32;33729;-60
2022/03/13 06:55:38;;;;;;;23.00;9.30;;;;;;;0.13;40.67;101122.66;4377014;32;33327;-58
2022/03/13 06:58:05;;;;;;;44.47;16.42;;;;;;;0.43;40.04;101119.03;4376840;32;34002;-58
2022/03/13 07:00:33;;;;;;;43.50;17.50;;;;;;;0.35;40.13;101120.75;4376915;32;33888;-58
2022/03/13 07:03:01;;;;;;;44.10;15.77;;;;;;;0.02;40.76;101126.62;4376797;32;33947;-58
2022/03/13 07:05:30;;;;;;;36.67;14.98;;;;;;;0.44;39.79;101120.81;4377506;32;34224;-58
2022/03/13 07:07:58;;;;;;;26.05;13.15;;;;;;;0.49;39.54;101109.47;4383338;32;33612;-61
2022/03/13 07:10:25;;;;;;;25.70;11.32;;;;;;;0.63;39.44;101118.56;4376274;32;34783;-61
2022/03/13 07:12:55;;;;;;;25.55;12.10;;;;;;;0.82;38.99;101117.19;4375087;32;33971;-61
2022/03/13 07:15:23;;;;;;;22.25;11.27;;;;;;;1.19;38.48;101115.91;4376646;32;33890;-61
2022/03/13 07:17:51;;;;;;;20.85;11.38;;;;;;;1.48;37.93;101110.31;4382055;32;34008;-62
2022/03/13 07:20:19;;;;;;;17.05;9.15;;;;;;;1.52;37.82;101113.31;4378619;32;33871;-61
2022/03/13 07:22:47;;;;;;;18.42;8.52;;;;;;;1.41;36.53;101107.87;4378369;32;34212;-60
2022/03/13 07:25:15;;;;;;;18.27;8.70;;;;;;;1.62;35.37;101110.03;4378389;32;33587;-60
2022/03/13 07:27:43;;;;;;;18.12;9.43;;;;;;;1.79;35.39;101103.19;4377282;32;33841;-60
2022/03/13 07:30:12;;;;;;;18.85;9.23;;;;;;;1.86;35.24;101113.28;4381028;32;34015;-62
2022/03/13 07:32:43;;;;;;;17.23;8.73;;;;;;;2.40;34.08;101114.38;4377777;32;33552;-62
2022/03/13 07:35:11;;;;;;;22.17;10.43;;;;;;;2.32;33.97;101110.19;4362409;32;33395;-61
2022/03/13 07:37:40;;;;;;;18.08;10.18;;;;;;;2.65;33.25;101112.56;4378040;32;33797;-62
2022/03/13 07:40:09;;;;;;;18.87;9.43;;;;;;;2.71;33.40;101112.25;4376563;32;34573;-61
2022/03/13 07:42:37;;;;;;;18.15;9.18;;;;;;;2.81;33.80;101108.94;4348802;32;32179;-61
2022/03/13 07:45:06;;;;;;;18.90;8.63;;;;;;;2.98;34.15;101113.12;4375702;32;34487;-60
2022/03/13 07:47:33;;;;;;;19.62;9.75;;;;;;;3.23;34.61;101117.25;4380206;32;34676;-61
2022/03/13 07:50:01;;;;;;;19.60;10.35;;;;;;;3.31;34.86;101116.31;4379435;32;34564;-61
2022/03/13 07:52:29;;;;;;;18.65;10.70;;;;;;;3.31;35.19;101126.56;4382313;32;34299;-62
2022/03/13 07:54:59;;;;;;;18.25;9.82;;;;;;;3.51;34.63;101114.72;4377582;32;32687;-60
2022/03/13 07:57:28;;;;;;;19.83;9.75;;;;;;;3.80;32.67;101126.78;4378198;32;34036;-60
2022/03/13 07:59:56;;;;;;;17.45;9.90;;;;;;;3.41;32.45;101117.19;4377393;32;33856;-58
2022/03/13 08:02:24;;;;;;;19.05;8.60;;;;;;;3.65;32.26;101119.50;4377807;32;34680;-59
2022/03/13 08:04:52;;;;;;;14.20;8.25;;;;;;;3.60;31.82;101120.72;4378496;32;33678;-58
2022/03/13 08:07:20;;;;;;;20.62;9.13;;;;;;;4.03;31.31;101121.22;4375416;32;33877;-59
2022/03/13 08:09:47;;;;;;;17.60;9.60;;;;;;;4.40;30.58;101112.63;4379794;32;33765;-58
2022/03/13 08:12:15;;;;;;;15.20;8.18;;;;;;;4.82;30.00;101111.22;4364377;32;33393;-60
2022/03/13 08:14:42;;;;;;;16.08;8.45;;;;;;;5.16;30.11;101112.53;4378242;32;33415;-59
2022/03/13 08:17:10;;;;;;;17.02;8.65;;;;;;;5.22;29.35;101112.16;4377619;32;33912;-59
2022/03/13 08:19:37;;;;;;;16.37;8.88;;;;;;;5.48;29.11;101107.56;4379769;32;33777;-59
2022/03/13 08:22:05;;;;;;;18.85;10.25;;;;;;;5.44;28.14;101107.19;4377951;32;33922;-60
2022/03/13 08:24:32;;;;;;;21.37;11.30;;;;;;;5.28;28.84;101113.56;4375097;32;33347;-58
2022/03/13 08:27:00;;;;;;;20.60;11.23;;;;;;;5.54;28.40;101111.44;4377080;32;33919;-58
2022/03/13 08:29:30;;;;;;;21.17;11.32;;;;;;;5.69;28.30;101107.63;4378366;32;36301;-59
2022/03/13 08:31:58;;;;;;;21.08;11.00;;;;;;;6.02;27.21;101109.59;4357414;32;33919;-60
2022/03/13 08:34:39;;;;;;;20.77;10.73;;;;;;;6.24;26.61;101101.13;4379682;32;32774;-59
2022/03/13 08:37:07;;;;;;;17.45;10.07;;;;;;;6.18;26.78;101098.00;4380589;32;33843;-59
2022/03/13 08:39:35;;;;;;;16.92;9.00;;;;;;;6.23;26.13;101099.31;4382270;32;34518;-59
2022/03/13 08:42:03;;;;;;;19.48;10.38;;;;;;;6.50;25.68;101091.25;4378742;32;33806;-59
2022/03/13 08:44:32;;;;;;;15.55;9.10;;;;;;;6.71;25.03;101090.31;4380671;32;34144;-61
2022/03/13 08:46:59;;;;;;;14.73;8.73;;;;;;;6.55;25.00;101093.31;4375945;32;34645;-60
2022/03/13 08:49:27;;;;;;;16.42;9.27;;;;;;;6.93;24.21;101098.09;4379770;32;34494;-58
2022/03/13 08:51:55;;;;;;;15.73;9.52;;;;;;;7.17;24.05;101089.75;4376981;32;33701;-59
2022/03/13 08:54:23;;;;;;;14.38;8.07;;;;;;;7.78;23.28;101080.69;4378936;32;34173;-59
2022/03/13 08:56:50;;;;;;;16.95;9.25;;;;;;;8.05;23.09;101083.56;4377920;32;34623;-60
2022/03/13 08:59:20;;;;;;;15.13;7.72;;;;;;;7.53;23.12;101093.38;4377720;32;34577;-60
2022/03/13 09:01:52;;;;;;;15.52;7.50;;;;;;;8.23;22.40;101074.63;4378689;32;33585;-59
2022/03/13 09:04:20;;;;;;;13.25;6.87;;;;;;;7.97;22.24;101079.50;4365196;32;33254;-60
2022/03/13 09:06:49;;;;;;;12.13;6.53;;;;;;;8.38;21.64;101080.03;4378279;32;34027;-60
2022/03/13 09:09:19;;;;;;;10.80;6.05;;;;;;;8.15;21.61;101082.56;4376655;32;34494;-59
2022/03/13 09:11:47;;;;;;;10.40;6.07;;;;;;;7.94;21.28;101079.28;4380390;32;34668;-63
2022/03/13 09:14:14;;;;;;;11.07;5.90;;;;;;;7.57;20.94;101082.53;4374535;32;33159;-60
2022/03/13 09:16:42;;;;;;;10.68;6.40;;;;;;;7.50;21.18;101080.25;4364329;32;34365;-59
2022/03/13 09:19:10;;;;;;;10.02;5.62;;;;;;;7.87;21.44;101073.66;4381235;32;32375;-61
2022/03/13 09:21:38;;;;;;;10.35;5.97;;;;;;;8.41;21.01;101067.37;4379174;32;33759;-60
2022/03/13 09:24:09;;;;;;;12.80;5.72;;;;;;;7.87;19.59;101072.75;4361401;32;33549;-60
2022/03/13 09:26:43;;;;;;;13.20;6.07;;;;;;;7.82;20.73;101058.59;4377499;32;34417;-60
2022/03/13 09:29:10;;;;;;;12.82;6.75;;;;;;;8.55;20.67;101062.31;4377510;32;33971;-61
2022/03/13 09:31:38;;;;;;;11.82;6.18;;;;;;;8.96;19.83;101067.00;4371377;32;33486;-60
2022/03/13 09:34:06;;;;;;;10.43;5.50;;;;;;;8.78;19.19;101062.31;4382518;32;33949;-60
2022/03/13 09:36:37;;;;;;;14.35;6.65;;;;;;;8.83;20.55;101060.97;4377364;32;34736;-61
2022/03/13 09:39:05;;;;;;;13.75;6.85;;;;;;;8.78;20.58;101062.31;4381042;32;33942;-61
2022/03/13 09:41:34;;;;;;;10.65;6.22;;;;;;;9.02;19.24;101072.59;4378755;32;34201;-61
2022/03/13 09:44:02;;;;;;;12.15;6.75;;;;;;;9.00;19.43;101066.41;4377539;32;33396;-59
2022/03/13 09:46:29;;;;;;;11.15;6.50;;;;;;;9.40;18.38;101061.47;4368397;32;33872;-61
2022/03/13 09:48:57;;;;;;;11.57;6.60;;;;;;;9.00;19.30;101059.59;4377594;32;33961;-61
2022/03/13 09:51:25;;;;;;;12.02;6.05;;;;;;;8.66;19.55;101056.25;4377850;32;34867;-60
2022/03/13 09:53:53;;;;;;;12.77;6.75;;;;;;;9.28;19.00;101055.47;4378247;32;33845;-60
2022/03/13 09:56:21;;;;;;;14.55;7.03;;;;;;;9.81;19.11;101040.13;4384080;32;33821;-60
2022/03/13 09:58:48;;;;;;;14.95;7.97;;;;;;;9.31;19.16;101037.56;4378214;32;33846;-60
2022/03/13 10:01:15;;;;;;;13.57;8.02;;;;;;;9.54;18.67;101032.31;4364163;32;34546;-60
2022/03/13 10:03:43;;;;;;;13.93;8.55;;;;;;;9.51;18.88;101036.38;4377500;32;33668;-60
2022/03/13 10:06:11;;;;;;;16.02;9.43;;;;;;;9.88;19.57;101038.88;4377735;32;34546;-59
2022/03/13 10:08:39;;;;;;;15.25;8.38;;;;;;;10.08;18.85;101035.91;4377557;32;34873;-60
2022/03/13 10:11:07;;;;;;;15.48;8.73;;;;;;;10.31;18.46;101032.28;4378180;32;34689;-61
2022/03/13 10:13:45;;;;;;;16.20;9.15;;;;;;;9.94;19.45;101022.03;4377530;32;33395;-61
2022/03/13 10:16:22;;;;;;;16.08;8.43;;;;;;;9.37;19.65;101025.09;4377598;32;33726;-59
2022/03/13 10:18:49;;;;;;;10.63;6.47;;;;;;;9.64;19.53;101026.06;4374633;32;34495;-61
2022/03/13 10:21:17;;;;;;;13.27;6.28;;;;;;;9.14;17.63;101037.28;4361208;32;33132;-60
2022/03/13 10:23:47;;;;;;;13.60;7.40;;;;;;;9.49;18.10;101027.59;4377198;32;34256;-60
2022/03/13 10:26:18;;;;;;;12.13;6.50;;;;;;;9.59;18.24;101025.75;4377077;32;32948;-62
2022/03/13 10:28:46;;;;;;;12.52;7.25;;;;;;;9.63;17.43;101024.25;4376147;32;33419;-59
2022/03/13 10:31:17;;;;;;;15.65;8.30;;;;;;;9.88;18.03;101021.62;4375374;32;33984;-61
2022/03/13 10:33:55;;;;;;;15.15;8.15;;;;;;;11.13;17.14;101022.81;4365693;32;33813;-59
2022/03/13 10:36:31;;;;;;;15.90;8.60;;;;;;;10.99;17.54;101018.44;4380082;32;32993;-62
2022/03/13 10:39:02;;;;;;;16.83;8.48;;;;;;;11.29;17.31;101018.56;4378509;32;34928;-60
2022/03/13 10:41:44;;;;;;;14.07;7.53;;;;;;;11.55;17.07;101018.47;4379790;32;34089;-62
2022/03/13 10:44:17;;;;;;;15.05;8.27;;;;;;;11.40;16.56;101014.94;4377743;32;34125;-61
2022/03/13 10:46:47;;;;;;;15.00;8.48;;;;;;;10.55;16.79;101019.16;4376029;32;33668;-60
2022/03/13 10:49:31;;;;;;;17.40;9.85;;;;;;;10.68;18.72;101020.81;4362224;32;35387;-62
2022/03/13 10:51:59;;;;;;;16.73;9.88;;;;;;;10.33;17.58;101015.12;4363255;32;34021;-61
2022/03/13 10:54:29;;;;;;;18.37;9.07;;;;;;;10.85;17.63;101014.09;4362561;32;33497;-61
2022/03/13 10:57:10;;;;;;;17.77;9.30;;;;;;;10.39;17.08;101012.97;4378988;32;33903;-61
2022/03/13 10:59:41;;;;;;;16.70;9.43;;;;;;;10.60;18.19;101012.53;4374093;32;33605;-60
2022/03/13 11:02:16;;;;;;;17.40;10.50;;;;;;;10.27;17.63;101009.53;4378286;32;33072;-62
2022/03/13 11:04:55;;;;;;;14.60;8.35;;;;;;;11.38;17.47;100998.38;4379023;32;33425;-62
2022/03/13 11:07:26;;;;;;;13.65;8.43;;;;;;;12.28;20.63;100992.44;4373857;32;34679;-61
2022/03/13 11:09:54;;;;;;;15.05;8.15;;;;;;;11.74;17.58;100996.19;4373405;32;33343;-62
2022/03/13 11:12:23;;;;;;;13.85;8.00;;;;;;;11.81;17.14;100993.16;4377954;32;33712;-61
2022/03/13 11:14:55;;;;;;;12.75;7.75;;;;;;;11.54;17.49;100988.09;4380025;32;34072;-62
2022/03/13 11:17:26;;;;;;;12.95;7.70;;;;;;;11.96;17.46;100988.88;4377143;32;34508;-62
2022/03/13 11:19:58;;;;;;;13.48;6.87;;;;;;;12.97;15.99;100984.97;4373390;32;35911;-61
2022/03/13 11:22:42;;;;;;;17.10;7.75;;;;;;;13.24;16.08;100984.66;4372120;32;33806;-62
2022/03/13 11:25:10;;;;;;;11.38;6.95;;;;;;;13.64;15.75;100976.37;4372772;32;33178;-62
2022/03/13 11:27:38;;;;;;;12.90;7.57;;;;;;;12.74;15.58;100975.91;4374833;32;33898;-61